sensor_id;sensor_type;location;lat;lon;timestamp;temperature;humidity
77592;DHT22;66891;46.884;17.436;2023-04-25T00:02:26;11.38;77.10
77592;DHT22;66891;46.884;17.436;2023-04-25T00:04:55;11.38;77.85
77592;DHT22;66891;46.884;17.436;2023-04-25T00:07:25;11.37;76.60
77592;DHT22;66891;46.884;17.436;2023-04-25T00:09:52;11.37;76.27
77592;DHT22;66891;46.884;17.436;2023-04-25T00:12:20;11.31;75.86
77592;DHT22;66891;46.884;17.436;2023-04-25T00:14:50;11.31;75.91
77592;DHT22;66891;46.884;17.436;2023-04-25T00:17:17;11.28;75.75
77592;DHT22;66891;46.884;17.436;2023-04-25T00:19:44;11.30;74.46
77592;DHT22;66891;46.884;17.436;2023-04-25T00:22:13;11.35;74.37
77592;DHT22;66891;46.884;17.436;2023-04-25T00:24:40;11.35;74.60
77592;DHT22;66891;46.884;17.436;2023-04-25T00:27:07;11.35;73.89
77592;DHT22;66891;46.884;17.436;2023-04-25T00:29:35;11.38;73.30
77592;DHT22;66891;46.884;17.436;2023-04-25T00:32:04;11.35;73.79
77592;DHT22;66891;46.884;17.436;2023-04-25T00:34:31;11.38;72.20
77592;DHT22;66891;46.884;17.436;2023-04-25T00:36:59;11.35;72.74
77592;DHT22;66891;46.884;17.436;2023-04-25T00:39:28;11.38;72.03
77592;DHT22;66891;46.884;17.436;2023-04-25T00:41:56;11.35;72.19
77592;DHT22;66891;46.884;17.436;2023-04-25T00:44:24;11.35;72.37
77592;DHT22;66891;46.884;17.436;2023-04-25T00:46:53;11.31;72.51
77592;DHT22;66891;46.884;17.436;2023-04-25T00:49:22;11.32;71.72
77592;DHT22;66891;46.884;17.436;2023-04-25T00:51:50;11.34;72.42
77592;DHT22;66891;46.884;17.436;2023-04-25T00:54:17;11.32;72.65
77592;DHT22;66891;46.884;17.436;2023-04-25T00:56:45;11.37;72.16
77592;DHT22;66891;46.884;17.436;2023-04-25T00:59:13;11.31;72.02
77592;DHT22;66891;46.884;17.436;2023-04-25T01:01:41;11.26;72.50
77592;DHT22;66891;46.884;17.436;2023-04-25T01:04:08;11.24;72.19
77592;DHT22;66891;46.884;17.436;2023-04-25T01:06:37;11.28;71.77
77592;DHT22;66891;46.884;17.436;2023-04-25T01:09:05;11.28;71.96
77592;DHT22;66891;46.884;17.436;2023-04-25T01:11:32;11.26;71.65
77592;DHT22;66891;46.884;17.436;2023-04-25T01:14:00;11.28;71.47
77592;DHT22;66891;46.884;17.436;2023-04-25T01:16:29;11.18;71.84
77592;DHT22;66891;46.884;17.436;2023-04-25T01:18:57;11.31;71.52
77592;DHT22;66891;46.884;17.436;2023-04-25T01:21:25;11.26;71.20
77592;DHT22;66891;46.884;17.436;2023-04-25T01:23:55;11.28;69.99
77592;DHT22;66891;46.884;17.436;2023-04-25T01:26:23;11.28;69.94
77592;DHT22;66891;46.884;17.436;2023-04-25T01:28:52;11.16;70.94
77592;DHT22;66891;46.884;17.436;2023-04-25T01:31:21;11.14;72.04
77592;DHT22;66891;46.884;17.436;2023-04-25T01:33:48;11.20;71.06
77592;DHT22;66891;46.884;17.436;2023-04-25T01:36:16;11.18;71.71
77592;DHT22;66891;46.884;17.436;2023-04-25T01:38:46;11.14;71.78
77592;DHT22;66891;46.884;17.436;2023-04-25T01:41:14;11.18;70.38
77592;DHT22;66891;46.884;17.436;2023-04-25T01:43:42;11.17;70.93
77592;DHT22;66891;46.884;17.436;2023-04-25T01:46:11;11.17;71.13
77592;DHT22;66891;46.884;17.436;2023-04-25T01:48:38;11.16;70.55
77592;DHT22;66891;46.884;17.436;2023-04-25T01:51:06;11.10;72.04
77592;DHT22;66891;46.884;17.436;2023-04-25T01:53:33;11.13;70.51
77592;DHT22;66891;46.884;17.436;2023-04-25T01:56:02;10.97;72.14
77592;DHT22;66891;46.884;17.436;2023-04-25T01:58:30;10.95;72.60
77592;DHT22;66891;46.884;17.436;2023-04-25T02:00:57;11.06;72.11
77592;DHT22;66891;46.884;17.436;2023-04-25T02:03:25;11.10;69.94
77592;DHT22;66891;46.884;17.436;2023-04-25T02:05:53;11.06;70.70
77592;DHT22;66891;46.884;17.436;2023-04-25T02:08:20;11.11;69.71
77592;DHT22;66891;46.884;17.436;2023-04-25T02:10:47;11.14;69.47
77592;DHT22;66891;46.884;17.436;2023-04-25T02:13:16;11.17;69.14
77592;DHT22;66891;46.884;17.436;2023-04-25T02:15:44;11.14;69.64
77592;DHT22;66891;46.884;17.436;2023-04-25T02:18:11;11.11;69.77
77592;DHT22;66891;46.884;17.436;2023-04-25T02:20:39;11.13;70.09
77592;DHT22;66891;46.884;17.436;2023-04-25T02:23:06;11.09;70.04
77592;DHT22;66891;46.884;17.436;2023-04-25T02:25:33;11.06;69.72
77592;DHT22;66891;46.884;17.436;2023-04-25T02:28:01;11.07;70.03
77592;DHT22;66891;46.884;17.436;2023-04-25T02:30:29;11.04;69.97
77592;DHT22;66891;46.884;17.436;2023-04-25T02:32:57;11.06;69.79
77592;DHT22;66891;46.884;17.436;2023-04-25T02:35:24;11.09;69.77
77592;DHT22;66891;46.884;17.436;2023-04-25T02:37:51;10.99;70.05
77592;DHT22;66891;46.884;17.436;2023-04-25T02:40:19;10.96;69.58
77592;DHT22;66891;46.884;17.436;2023-04-25T02:42:46;10.99;70.05
77592;DHT22;66891;46.884;17.436;2023-04-25T02:45:13;10.99;69.94
77592;DHT22;66891;46.884;17.436;2023-04-25T02:47:42;10.97;69.63
77592;DHT22;66891;46.884;17.436;2023-04-25T02:50:10;10.90;70.45
77592;DHT22;66891;46.884;17.436;2023-04-25T02:52:38;10.92;70.40
77592;DHT22;66891;46.884;17.436;2023-04-25T02:55:06;10.93;70.59
77592;DHT22;66891;46.884;17.436;2023-04-25T02:57:34;10.84;70.54
77592;DHT22;66891;46.884;17.436;2023-04-25T03:00:03;10.84;71.44
77592;DHT22;66891;46.884;17.436;2023-04-25T03:02:32;10.80;71.18
77592;DHT22;66891;46.884;17.436;2023-04-25T03:05:00;10.80;71.04
77592;DHT22;66891;46.884;17.436;2023-04-25T03:07:28;10.79;71.03
77592;DHT22;66891;46.884;17.436;2023-04-25T03:09:55;10.80;71.01
77592;DHT22;66891;46.884;17.436;2023-04-25T03:12:23;10.70;71.54
77592;DHT22;66891;46.884;17.436;2023-04-25T03:14:50;10.66;71.80
77592;DHT22;66891;46.884;17.436;2023-04-25T03:17:18;10.68;71.24
77592;DHT22;66891;46.884;17.436;2023-04-25T03:19:45;10.68;71.23
77592;DHT22;66891;46.884;17.436;2023-04-25T03:22:14;10.62;71.89
77592;DHT22;66891;46.884;17.436;2023-04-25T03:24:42;10.70;71.74
77592;DHT22;66891;46.884;17.436;2023-04-25T03:27:10;10.69;71.21
77592;DHT22;66891;46.884;17.436;2023-04-25T03:29:37;10.66;70.80
77592;DHT22;66891;46.884;17.436;2023-04-25T03:32:05;10.68;70.64
77592;DHT22;66891;46.884;17.436;2023-04-25T03:34:32;10.69;70.67
77592;DHT22;66891;46.884;17.436;2023-04-25T03:36:59;10.69;70.87
77592;DHT22;66891;46.884;17.436;2023-04-25T03:39:28;10.75;69.18
77592;DHT22;66891;46.884;17.436;2023-04-25T03:41:55;10.77;69.68
77592;DHT22;66891;46.884;17.436;2023-04-25T03:44:22;10.70;70.42
77592;DHT22;66891;46.884;17.436;2023-04-25T03:46:51;10.76;69.42
77592;DHT22;66891;46.884;17.436;2023-04-25T03:49:18;10.75;70.00
77592;DHT22;66891;46.884;17.436;2023-04-25T03:51:45;10.79;68.81
77592;DHT22;66891;46.884;17.436;2023-04-25T03:54:13;10.79;69.24
77592;DHT22;66891;46.884;17.436;2023-04-25T03:56:41;10.83;69.14
77592;DHT22;66891;46.884;17.436;2023-04-25T03:59:08;10.84;68.77
77592;DHT22;66891;46.884;17.436;2023-04-25T04:01:36;10.84;68.51
77592;DHT22;66891;46.884;17.436;2023-04-25T04:04:03;10.86;68.53
77592;DHT22;66891;46.884;17.436;2023-04-25T04:06:31;10.83;69.06
77592;DHT22;66891;46.884;17.436;2023-04-25T04:08:59;10.88;68.12
77592;DHT22;66891;46.884;17.436;2023-04-25T04:11:26;10.92;68.04
77592;DHT22;66891;46.884;17.436;2023-04-25T04:13:55;10.84;67.88
77592;DHT22;66891;46.884;17.436;2023-04-25T04:16:22;10.84;68.03
77592;DHT22;66891;46.884;17.436;2023-04-25T04:18:49;10.89;68.11
77592;DHT22;66891;46.884;17.436;2023-04-25T04:21:17;10.84;68.52
77592;DHT22;66891;46.884;17.436;2023-04-25T04:23:44;10.92;67.86
77592;DHT22;66891;46.884;17.436;2023-04-25T04:26:11;10.96;67.84
77592;DHT22;66891;46.884;17.436;2023-04-25T04:28:39;10.95;67.28
77592;DHT22;66891;46.884;17.436;2023-04-25T04:31:08;10.99;67.38
77592;DHT22;66891;46.884;17.436;2023-04-25T04:33:36;10.99;67.43
77592;DHT22;66891;46.884;17.436;2023-04-25T04:36:04;10.99;67.41
77592;DHT22;66891;46.884;17.436;2023-04-25T04:38:34;10.97;67.52
77592;DHT22;66891;46.884;17.436;2023-04-25T04:41:05;11.03;68.13
77592;DHT22;66891;46.884;17.436;2023-04-25T04:43:32;11.07;66.98
77592;DHT22;66891;46.884;17.436;2023-04-25T04:46:00;11.03;67.51
77592;DHT22;66891;46.884;17.436;2023-04-25T04:48:29;11.04;67.18
77592;DHT22;66891;46.884;17.436;2023-04-25T04:50:59;11.03;66.72
77592;DHT22;66891;46.884;17.436;2023-04-25T04:54:08;11.04;67.07
77592;DHT22;66891;46.884;17.436;2023-04-25T04:56:29;11.01;67.73
77592;DHT22;66891;46.884;17.436;2023-04-25T04:58:58;11.03;67.40
77592;DHT22;66891;46.884;17.436;2023-04-25T05:01:26;11.01;67.26
77592;DHT22;66891;46.884;17.436;2023-04-25T05:03:55;11.01;68.08
77592;DHT22;66891;46.884;17.436;2023-04-25T05:06:28;11.09;67.82
77592;DHT22;66891;46.884;17.436;2023-04-25T05:08:58;11.24;67.17
77592;DHT22;66891;46.884;17.436;2023-04-25T05:11:26;11.21;66.69
77592;DHT22;66891;46.884;17.436;2023-04-25T05:13:53;11.13;67.61
77592;DHT22;66891;46.884;17.436;2023-04-25T05:16:20;11.21;66.77
77592;DHT22;66891;46.884;17.436;2023-04-25T05:18:48;11.21;66.44
77592;DHT22;66891;46.884;17.436;2023-04-25T05:21:16;11.23;66.51
77592;DHT22;66891;46.884;17.436;2023-04-25T05:23:44;11.31;66.29
77592;DHT22;66891;46.884;17.436;2023-04-25T05:26:11;11.35;66.40
77592;DHT22;66891;46.884;17.436;2023-04-25T05:28:41;11.31;66.06
77592;DHT22;66891;46.884;17.436;2023-04-25T05:31:09;11.47;65.84
77592;DHT22;66891;46.884;17.436;2023-04-25T05:33:37;11.86;66.74
77592;DHT22;66891;46.884;17.436;2023-04-25T05:36:07;11.62;65.89
77592;DHT22;66891;46.884;17.436;2023-04-25T05:38:36;11.82;64.99
77592;DHT22;66891;46.884;17.436;2023-04-25T05:41:04;11.62;65.54
77592;DHT22;66891;46.884;17.436;2023-04-25T05:43:31;11.78;64.12
77592;DHT22;66891;46.884;17.436;2023-04-25T05:45:59;11.78;64.43
77592;DHT22;66891;46.884;17.436;2023-04-25T05:48:27;11.78;64.20
77592;DHT22;66891;46.884;17.436;2023-04-25T05:50:54;11.86;65.12
77592;DHT22;66891;46.884;17.436;2023-04-25T05:53:22;11.69;64.42
77592;DHT22;66891;46.884;17.436;2023-04-25T05:55:51;12.20;70.29
77592;DHT22;66891;46.884;17.436;2023-04-25T05:58:18;11.66;64.45
77592;DHT22;66891;46.884;17.436;2023-04-25T06:00:46;11.90;64.82
77592;DHT22;66891;46.884;17.436;2023-04-25T06:03:13;11.76;64.03
77592;DHT22;66891;46.884;17.436;2023-04-25T06:05:47;11.74;64.66
77592;DHT22;66891;46.884;17.436;2023-04-25T06:08:14;11.72;63.92
77592;DHT22;66891;46.884;17.436;2023-04-25T06:10:42;11.74;64.62
77592;DHT22;66891;46.884;17.436;2023-04-25T06:13:10;11.86;64.16
77592;DHT22;66891;46.884;17.436;2023-04-25T06:15:38;11.86;63.20
77592;DHT22;66891;46.884;17.436;2023-04-25T06:18:06;11.85;63.50
77592;DHT22;66891;46.884;17.436;2023-04-25T06:20:36;11.81;63.64
77592;DHT22;66891;46.884;17.436;2023-04-25T06:23:03;11.82;63.94
77592;DHT22;66891;46.884;17.436;2023-04-25T06:25:30;11.87;62.86
77592;DHT22;66891;46.884;17.436;2023-04-25T06:27:58;11.87;62.95
77592;DHT22;66891;46.884;17.436;2023-04-25T06:30:27;11.92;63.14
77592;DHT22;66891;46.884;17.436;2023-04-25T06:32:54;11.99;62.82
77592;DHT22;66891;46.884;17.436;2023-04-25T06:35:22;11.99;62.60
77592;DHT22;66891;46.884;17.436;2023-04-25T06:37:50;12.02;62.96
77592;DHT22;66891;46.884;17.436;2023-04-25T06:40:18;12.10;63.06
77592;DHT22;66891;46.884;17.436;2023-04-25T06:42:45;12.10;60.82
77592;DHT22;66891;46.884;17.436;2023-04-25T06:45:13;12.16;60.29
77592;DHT22;66891;46.884;17.436;2023-04-25T06:47:41;12.26;60.15
77592;DHT22;66891;46.884;17.436;2023-04-25T06:50:09;12.45;61.01
77592;DHT22;66891;46.884;17.436;2023-04-25T06:52:37;12.54;61.10
77592;DHT22;66891;46.884;17.436;2023-04-25T06:55:06;12.69;60.51
77592;DHT22;66891;46.884;17.436;2023-04-25T06:57:33;12.69;59.90
77592;DHT22;66891;46.884;17.436;2023-04-25T07:00:02;12.78;60.17
77592;DHT22;66891;46.884;17.436;2023-04-25T07:02:32;12.74;60.14
77592;DHT22;66891;46.884;17.436;2023-04-25T07:05:02;12.62;61.07
77592;DHT22;66891;46.884;17.436;2023-04-25T07:07:31;12.61;60.07
77592;DHT22;66891;46.884;17.436;2023-04-25T07:09:59;12.58;59.42
77592;DHT22;66891;46.884;17.436;2023-04-25T07:12:27;12.51;58.39
77592;DHT22;66891;46.884;17.436;2023-04-25T07:14:54;12.45;59.46
77592;DHT22;66891;46.884;17.436;2023-04-25T07:17:22;12.51;60.32
77592;DHT22;66891;46.884;17.436;2023-04-25T07:19:49;12.55;59.95
77592;DHT22;66891;46.884;17.436;2023-04-25T07:22:18;12.62;58.76
77592;DHT22;66891;46.884;17.436;2023-04-25T07:24:45;12.72;58.34
77592;DHT22;66891;46.884;17.436;2023-04-25T07:27:15;12.82;59.44
77592;DHT22;66891;46.884;17.436;2023-04-25T07:29:43;12.88;58.61
77592;DHT22;66891;46.884;17.436;2023-04-25T07:32:10;13.00;59.98
77592;DHT22;66891;46.884;17.436;2023-04-25T07:34:42;13.20;60.25
77592;DHT22;66891;46.884;17.436;2023-04-25T07:37:09;13.23;58.76
77592;DHT22;66891;46.884;17.436;2023-04-25T07:39:39;13.30;57.98
77592;DHT22;66891;46.884;17.436;2023-04-25T07:42:12;13.39;58.44
77592;DHT22;66891;46.884;17.436;2023-04-25T07:44:41;13.35;59.03
77592;DHT22;66891;46.884;17.436;2023-04-25T07:47:10;13.44;58.07
77592;DHT22;66891;46.884;17.436;2023-04-25T07:49:37;13.61;57.27
77592;DHT22;66891;46.884;17.436;2023-04-25T07:52:05;13.54;55.39
77592;DHT22;66891;46.884;17.436;2023-04-25T07:54:34;13.44;55.12
77592;DHT22;66891;46.884;17.436;2023-04-25T07:57:03;13.50;54.91
77592;DHT22;66891;46.884;17.436;2023-04-25T07:59:31;13.50;55.37
77592;DHT22;66891;46.884;17.436;2023-04-25T08:02:01;13.44;54.35
77592;DHT22;66891;46.884;17.436;2023-04-25T08:04:28;13.44;54.97
77592;DHT22;66891;46.884;17.436;2023-04-25T08:06:56;13.51;55.29
77592;DHT22;66891;46.884;17.436;2023-04-25T08:09:23;13.53;54.61
77592;DHT22;66891;46.884;17.436;2023-04-25T08:11:51;13.71;55.76
77592;DHT22;66891;46.884;17.436;2023-04-25T08:14:20;13.67;55.55
77592;DHT22;66891;46.884;17.436;2023-04-25T08:16:47;13.77;55.27
77592;DHT22;66891;46.884;17.436;2023-04-25T08:19:15;13.65;54.63
77592;DHT22;66891;46.884;17.436;2023-04-25T08:21:42;13.74;54.18
77592;DHT22;66891;46.884;17.436;2023-04-25T08:24:09;13.84;54.22
77592;DHT22;66891;46.884;17.436;2023-04-25T08:26:37;13.89;53.92
77592;DHT22;66891;46.884;17.436;2023-04-25T08:29:05;14.01;54.53
77592;DHT22;66891;46.884;17.436;2023-04-25T08:31:34;13.94;53.82
77592;DHT22;66891;46.884;17.436;2023-04-25T08:34:02;14.16;54.15
77592;DHT22;66891;46.884;17.436;2023-04-25T08:36:29;14.16;54.27
77592;DHT22;66891;46.884;17.436;2023-04-25T08:39:06;14.00;53.66
77592;DHT22;66891;46.884;17.436;2023-04-25T08:41:36;14.08;54.51
77592;DHT22;66891;46.884;17.436;2023-04-25T08:44:05;14.39;54.12
77592;DHT22;66891;46.884;17.436;2023-04-25T08:46:38;14.29;54.67
77592;DHT22;66891;46.884;17.436;2023-04-25T08:49:05;14.05;54.98
77592;DHT22;66891;46.884;17.436;2023-04-25T08:51:34;14.12;55.40
77592;DHT22;66891;46.884;17.436;2023-04-25T08:54:09;14.13;52.28
77592;DHT22;66891;46.884;17.436;2023-04-25T08:57:01;14.19;53.00
77592;DHT22;66891;46.884;17.436;2023-04-25T08:59:32;14.23;52.40
77592;DHT22;66891;46.884;17.436;2023-04-25T09:02:01;14.39;53.77
77592;DHT22;66891;46.884;17.436;2023-04-25T09:04:30;14.56;52.04
77592;DHT22;66891;46.884;17.436;2023-04-25T09:06:58;14.37;51.63
77592;DHT22;66891;46.884;17.436;2023-04-25T09:09:31;14.53;51.49
77592;DHT22;66891;46.884;17.436;2023-04-25T09:12:00;14.60;51.19
77592;DHT22;66891;46.884;17.436;2023-04-25T09:14:31;14.57;51.33
77592;DHT22;66891;46.884;17.436;2023-04-25T09:17:02;14.60;49.44
77592;DHT22;66891;46.884;17.436;2023-04-25T09:19:34;14.59;48.98
77592;DHT22;66891;46.884;17.436;2023-04-25T09:22:08;14.63;49.70
77592;DHT22;66891;46.884;17.436;2023-04-25T09:24:37;15.11;48.52
77592;DHT22;66891;46.884;17.436;2023-04-25T09:27:06;15.08;48.80
77592;DHT22;66891;46.884;17.436;2023-04-25T09:29:35;14.70;48.67
77592;DHT22;66891;46.884;17.436;2023-04-25T09:32:23;14.73;49.93
77592;DHT22;66891;46.884;17.436;2023-04-25T09:34:54;14.78;48.75
77592;DHT22;66891;46.884;17.436;2023-04-25T09:37:24;15.02;49.18
77592;DHT22;66891;46.884;17.436;2023-04-25T09:39:54;15.25;48.83
77592;DHT22;66891;46.884;17.436;2023-04-25T09:42:23;15.36;48.95
77592;DHT22;66891;46.884;17.436;2023-04-25T09:44:53;15.34;49.50
77592;DHT22;66891;46.884;17.436;2023-04-25T09:47:25;15.70;49.00
77592;DHT22;66891;46.884;17.436;2023-04-25T09:49:54;15.49;48.77
77592;DHT22;66891;46.884;17.436;2023-04-25T09:52:23;15.80;49.06
77592;DHT22;66891;46.884;17.436;2023-04-25T09:54:55;15.73;49.01
77592;DHT22;66891;46.884;17.436;2023-04-25T09:57:23;15.71;49.08
77592;DHT22;66891;46.884;17.436;2023-04-25T09:59:53;15.94;48.81
77592;DHT22;66891;46.884;17.436;2023-04-25T10:02:25;15.86;49.19
77592;DHT22;66891;46.884;17.436;2023-04-25T10:04:55;16.02;48.28
77592;DHT22;66891;46.884;17.436;2023-04-25T10:07:24;16.49;48.42
77592;DHT22;66891;46.884;17.436;2023-04-25T10:09:58;16.18;47.95
77592;DHT22;66891;46.884;17.436;2023-04-25T10:12:31;16.14;47.77
77592;DHT22;66891;46.884;17.436;2023-04-25T10:15:00;16.44;46.44
77592;DHT22;66891;46.884;17.436;2023-04-25T10:17:31;16.25;46.10
77592;DHT22;66891;46.884;17.436;2023-04-25T10:20:00;16.32;46.81
77592;DHT22;66891;46.884;17.436;2023-04-25T10:22:35;16.42;45.24
77592;DHT22;66891;46.884;17.436;2023-04-25T10:25:04;16.44;46.60
77592;DHT22;66891;46.884;17.436;2023-04-25T10:27:31;16.84;47.46
77592;DHT22;66891;46.884;17.436;2023-04-25T10:30:02;16.93;44.93
77592;DHT22;66891;46.884;17.436;2023-04-25T10:32:33;16.77;44.40
77592;DHT22;66891;46.884;17.436;2023-04-25T10:35:10;17.34;44.90
77592;DHT22;66891;46.884;17.436;2023-04-25T10:37:38;17.31;43.97
77592;DHT22;66891;46.884;17.436;2023-04-25T10:40:28;17.11;44.41
77592;DHT22;66891;46.884;17.436;2023-04-25T10:45:59;17.31;45.63
77592;DHT22;66891;46.884;17.436;2023-04-25T10:48:30;17.34;45.19
77592;DHT22;66891;46.884;17.436;2023-04-25T10:51:16;17.13;44.38
77592;DHT22;66891;46.884;17.436;2023-04-25T10:53:44;17.17;43.63
77592;DHT22;66891;46.884;17.436;2023-04-25T10:56:17;17.07;42.49
77592;DHT22;66891;46.884;17.436;2023-04-25T10:58:46;17.31;42.74
77592;DHT22;66891;46.884;17.436;2023-04-25T11:01:20;18.07;42.92
77592;DHT22;66891;46.884;17.436;2023-04-25T11:03:57;18.79;42.00
77592;DHT22;66891;46.884;17.436;2023-04-25T11:06:31;18.30;41.64
77592;DHT22;66891;46.884;17.436;2023-04-25T11:09:01;17.30;42.48
77592;DHT22;66891;46.884;17.436;2023-04-25T11:11:29;16.91;43.49
77592;DHT22;66891;46.884;17.436;2023-04-25T11:13:57;17.62;43.17
77592;DHT22;66891;46.884;17.436;2023-04-25T11:16:26;17.86;42.86
77592;DHT22;66891;46.884;17.436;2023-04-25T11:18:58;17.44;43.28
77592;DHT22;66891;46.884;17.436;2023-04-25T11:21:26;17.69;42.32
77592;DHT22;66891;46.884;17.436;2023-04-25T11:24:01;18.81;39.96
77592;DHT22;66891;46.884;17.436;2023-04-25T11:26:30;19.24;38.94
77592;DHT22;66891;46.884;17.436;2023-04-25T11:29:00;19.53;38.29
77592;DHT22;66891;46.884;17.436;2023-04-25T11:31:29;18.57;40.16
77592;DHT22;66891;46.884;17.436;2023-04-25T11:33:59;18.33;40.05
77592;DHT22;66891;46.884;17.436;2023-04-25T11:36:27;17.82;41.99
77592;DHT22;66891;46.884;17.436;2023-04-25T11:38:55;17.52;43.37
77592;DHT22;66891;46.884;17.436;2023-04-25T11:41:23;17.82;42.11
77592;DHT22;66891;46.884;17.436;2023-04-25T11:43:52;17.78;41.27
77592;DHT22;66891;46.884;17.436;2023-04-25T11:46:21;17.86;42.48
77592;DHT22;66891;46.884;17.436;2023-04-25T11:48:49;17.85;43.11
77592;DHT22;66891;46.884;17.436;2023-04-25T11:51:19;17.63;43.81
77592;DHT22;66891;46.884;17.436;2023-04-25T11:53:47;17.23;43.75
77592;DHT22;66891;46.884;17.436;2023-04-25T11:56:14;16.90;45.43
77592;DHT22;66891;46.884;17.436;2023-04-25T11:58:55;16.81;46.60
77592;DHT22;66891;46.884;17.436;2023-04-25T12:01:28;16.26;48.61
77592;DHT22;66891;46.884;17.436;2023-04-25T12:04:11;16.12;50.29
77592;DHT22;66891;46.884;17.436;2023-04-25T12:06:42;15.94;51.17
77592;DHT22;66891;46.884;17.436;2023-04-25T12:09:11;15.79;52.28
77592;DHT22;66891;46.884;17.436;2023-04-25T12:11:44;14.91;58.55
77592;DHT22;66891;46.884;17.436;2023-04-25T12:14:12;14.00;63.74
77592;DHT22;66891;46.884;17.436;2023-04-25T12:16:48;13.44;68.69
77592;DHT22;66891;46.884;17.436;2023-04-25T12:19:20;13.00;70.17
77592;DHT22;66891;46.884;17.436;2023-04-25T12:21:49;12.75;71.51
77592;DHT22;66891;46.884;17.436;2023-04-25T12:24:25;12.84;69.86
77592;DHT22;66891;46.884;17.436;2023-04-25T12:26:59;12.96;72.33
77592;DHT22;66891;46.884;17.436;2023-04-25T12:29:32;13.33;72.52
77592;DHT22;66891;46.884;17.436;2023-04-25T12:32:15;13.73;70.92
77592;DHT22;66891;46.884;17.436;2023-04-25T12:34:42;13.85;67.89
77592;DHT22;66891;46.884;17.436;2023-04-25T12:37:12;13.92;65.36
77592;DHT22;66891;46.884;17.436;2023-04-25T12:39:39;14.22;65.50
77592;DHT22;66891;46.884;17.436;2023-04-25T12:42:07;14.40;65.45
77592;DHT22;66891;46.884;17.436;2023-04-25T12:44:40;14.57;64.34
77592;DHT22;66891;46.884;17.436;2023-04-25T12:47:08;14.73;61.98
77592;DHT22;66891;46.884;17.436;2023-04-25T12:49:36;15.09;63.11
77592;DHT22;66891;46.884;17.436;2023-04-25T12:52:03;15.12;62.94
77592;DHT22;66891;46.884;17.436;2023-04-25T12:54:32;15.02;62.50
77592;DHT22;66891;46.884;17.436;2023-04-25T12:56:59;15.49;59.37
77592;DHT22;66891;46.884;17.436;2023-04-25T12:59:28;15.84;59.83
77592;DHT22;66891;46.884;17.436;2023-04-25T13:01:55;16.28;58.40
77592;DHT22;66891;46.884;17.436;2023-04-25T13:04:23;16.56;56.90
77592;DHT22;66891;46.884;17.436;2023-04-25T13:06:51;16.12;55.74
77592;DHT22;66891;46.884;17.436;2023-04-25T13:09:18;16.53;55.57
77592;DHT22;66891;46.884;17.436;2023-04-25T13:11:47;17.11;54.87
77592;DHT22;66891;46.884;17.436;2023-04-25T13:14:14;16.90;52.45
77592;DHT22;66891;46.884;17.436;2023-04-25T13:16:42;17.00;53.30
77592;DHT22;66891;46.884;17.436;2023-04-25T13:19:10;17.10;54.22
77592;DHT22;66891;46.884;17.436;2023-04-25T13:21:38;17.23;52.00
77592;DHT22;66891;46.884;17.436;2023-04-25T13:24:06;17.49;52.38
77592;DHT22;66891;46.884;17.436;2023-04-25T13:26:33;17.38;49.62
77592;DHT22;66891;46.884;17.436;2023-04-25T13:29:02;17.42;47.91
77592;DHT22;66891;46.884;17.436;2023-04-25T13:31:31;17.34;45.70
77592;DHT22;66891;46.884;17.436;2023-04-25T13:34:07;17.31;45.43
77592;DHT22;66891;46.884;17.436;2023-04-25T13:36:35;17.25;47.84
77592;DHT22;66891;46.884;17.436;2023-04-25T13:39:03;17.14;47.29
77592;DHT22;66891;46.884;17.436;2023-04-25T13:41:31;17.04;44.53
77592;DHT22;66891;46.884;17.436;2023-04-25T13:43:59;16.91;46.09
77592;DHT22;66891;46.884;17.436;2023-04-25T13:46:29;17.24;45.62
77592;DHT22;66891;46.884;17.436;2023-04-25T13:49:13;17.65;44.53
77592;DHT22;66891;46.884;17.436;2023-04-25T13:51:40;17.46;44.29
77592;DHT22;66891;46.884;17.436;2023-04-25T13:54:09;17.34;42.61
77592;DHT22;66891;46.884;17.436;2023-04-25T13:56:36;17.32;43.44
77592;DHT22;66891;46.884;17.436;2023-04-25T13:59:04;17.48;44.93
77592;DHT22;66891;46.884;17.436;2023-04-25T14:01:33;17.30;45.36
77592;DHT22;66891;46.884;17.436;2023-04-25T14:04:03;17.20;45.94
77592;DHT22;66891;46.884;17.436;2023-04-25T14:06:33;17.38;46.03
77592;DHT22;66891;46.884;17.436;2023-04-25T14:09:01;17.52;46.55
77592;DHT22;66891;46.884;17.436;2023-04-25T14:11:28;17.34;45.86
77592;DHT22;66891;46.884;17.436;2023-04-25T14:13:56;17.41;46.21
77592;DHT22;66891;46.884;17.436;2023-04-25T14:16:23;17.36;44.73
77592;DHT22;66891;46.884;17.436;2023-04-25T14:18:52;17.51;47.44
77592;DHT22;66891;46.884;17.436;2023-04-25T14:21:21;17.36;49.94
77592;DHT22;66891;46.884;17.436;2023-04-25T14:23:48;17.63;49.59
77592;DHT22;66891;46.884;17.436;2023-04-25T14:26:16;16.96;47.94
77592;DHT22;66891;46.884;17.436;2023-04-25T14:28:43;16.80;47.23
77592;DHT22;66891;46.884;17.436;2023-04-25T14:31:11;16.58;47.59
77592;DHT22;66891;46.884;17.436;2023-04-25T14:33:38;16.67;48.78
77592;DHT22;66891;46.884;17.436;2023-04-25T14:36:10;16.62;48.51
77592;DHT22;66891;46.884;17.436;2023-04-25T14:38:38;16.69;49.34
77592;DHT22;66891;46.884;17.436;2023-04-25T14:41:05;16.65;47.70
77592;DHT22;66891;46.884;17.436;2023-04-25T14:43:32;16.62;48.91
77592;DHT22;66891;46.884;17.436;2023-04-25T14:45:59;16.49;48.07
77592;DHT22;66891;46.884;17.436;2023-04-25T14:48:27;16.73;47.07
77592;DHT22;66891;46.884;17.436;2023-04-25T14:50:55;16.90;45.39
77592;DHT22;66891;46.884;17.436;2023-04-25T14:53:28;17.11;44.96
77592;DHT22;66891;46.884;17.436;2023-04-25T14:55:56;16.87;45.47
77592;DHT22;66891;46.884;17.436;2023-04-25T14:58:23;16.91;46.95
77592;DHT22;66891;46.884;17.436;2023-04-25T15:00:50;16.35;47.48
77592;DHT22;66891;46.884;17.436;2023-04-25T15:03:18;16.17;48.18
77592;DHT22;66891;46.884;17.436;2023-04-25T15:05:46;16.17;49.26
77592;DHT22;66891;46.884;17.436;2023-04-25T15:08:14;16.21;49.62
77592;DHT22;66891;46.884;17.436;2023-04-25T15:10:43;16.25;49.51
77592;DHT22;66891;46.884;17.436;2023-04-25T15:13:10;16.38;49.44
77592;DHT22;66891;46.884;17.436;2023-04-25T15:15:38;16.79;49.46
77592;DHT22;66891;46.884;17.436;2023-04-25T15:18:05;16.70;47.74
77592;DHT22;66891;46.884;17.436;2023-04-25T15:20:33;16.59;48.20
77592;DHT22;66891;46.884;17.436;2023-04-25T15:23:01;16.20;50.56
77592;DHT22;66891;46.884;17.436;2023-04-25T15:25:30;15.64;52.30
77592;DHT22;66891;46.884;17.436;2023-04-25T15:27:59;15.50;52.79
77592;DHT22;66891;46.884;17.436;2023-04-25T15:30:26;15.47;53.01